createdAt,value
2022-07-29T00:01:03.703Z,60.12
2022-07-29T00:03:30.285Z,60.37
2022-07-29T00:05:56.955Z,60.47
2022-07-29T00:08:23.526Z,60.76
2022-07-29T00:10:50.457Z,61.16
2022-07-29T00:13:17.012Z,60.93
2022-07-29T00:15:43.519Z,61.35
2022-07-29T00:18:09.982Z,60.91
2022-07-29T00:20:36.477Z,60.97
2022-07-29T00:23:02.975Z,60.99
2022-07-29T00:25:29.491Z,60.93
2022-07-29T00:27:57.366Z,60.99
2022-07-29T00:30:24.036Z,61.21
2022-07-29T00:32:50.548Z,61.41
2022-07-29T00:35:35.250Z,61.78
2022-07-29T00:38:02.033Z,61.80
2022-07-29T00:40:28.730Z,61.99
2022-07-29T00:42:55.319Z,61.96
2022-07-29T00:45:23.134Z,62.13
2022-07-29T00:47:50.044Z,62.13
2022-07-29T00:50:16.825Z,62.14
2022-07-29T00:52:44.273Z,62.36
2022-07-29T00:55:15.087Z,62.12
2022-07-29T00:57:43.005Z,62.18
2022-07-29T01:00:12.765Z,62.79
2022-07-29T01:02:39.384Z,62.66
2022-07-29T01:05:06.853Z,62.33
2022-07-29T01:07:37.149Z,62.53
2022-07-29T01:10:06.222Z,62.43
2022-07-29T01:12:34.451Z,62.97
2022-07-29T01:15:03.436Z,62.92
2022-07-29T01:17:37.867Z,63.45
2022-07-29T01:20:10.464Z,63.33
2022-07-29T01:23:02.248Z,63.74
2022-07-29T01:25:56.021Z,63.23
2022-07-29T01:28:45.780Z,63.51
2022-07-29T01:31:39.653Z,63.81
2022-07-29T01:34:28.808Z,63.36
2022-07-29T01:37:30.646Z,63.48
2022-07-29T01:39:59.902Z,63.76
2022-07-29T01:42:36.442Z,63.92
2022-07-29T01:45:22.607Z,64.15
2022-07-29T01:47:52.114Z,63.79
2022-07-29T01:50:24.220Z,63.67
2022-07-29T01:52:55.269Z,63.52
2022-07-29T01:55:26.073Z,64.24
2022-07-29T01:57:52.829Z,64.24
2022-07-29T02:00:19.966Z,64.32
2022-07-29T02:02:49.965Z,63.92
2022-07-29T02:05:21.419Z,64.36
2022-07-29T02:07:50.105Z,63.86
2022-07-29T02:10:19.695Z,64.19
2022-07-29T02:12:54.861Z,64.29
2022-07-29T02:15:24.195Z,64.24
2022-07-29T02:17:55.803Z,63.69
2022-07-29T02:20:24.582Z,64.25
2022-07-29T02:22:53.068Z,63.88
2022-07-29T02:25:21.591Z,64.38
2022-07-29T02:27:51.522Z,63.54
2022-07-29T02:30:20.402Z,64.03
2022-07-29T02:32:49.432Z,64.09
2022-07-29T02:35:17.621Z,64.56
2022-07-29T02:37:46.535Z,64.40
2022-07-29T02:40:15.963Z,64.36
2022-07-29T02:42:44.801Z,64.42
2022-07-29T02:45:11.574Z,64.39
2022-07-29T02:47:44.610Z,64.61
2022-07-29T02:50:16.362Z,64.68
2022-07-29T02:52:46.280Z,64.44
2022-07-29T02:55:35.727Z,64.43
2022-07-29T02:58:06.620Z,64.57
2022-07-29T03:00:37.585Z,64.94
2022-07-29T03:03:07.785Z,64.66
2022-07-29T03:05:36.159Z,64.42
2022-07-29T03:08:10.004Z,64.89
2022-07-29T03:10:39.913Z,65.16
2022-07-29T03:13:08.808Z,64.91
2022-07-29T03:15:36.405Z,64.90
2022-07-29T03:18:03.393Z,65.13
2022-07-29T03:20:29.962Z,64.63
2022-07-29T03:22:56.405Z,65.05
2022-07-29T03:25:22.858Z,64.80
2022-07-29T03:27:50.940Z,64.81
2022-07-29T03:30:21.551Z,64.89
2022-07-29T03:32:48.536Z,64.95
2022-07-29T03:35:17.463Z,65.22
2022-07-29T03:37:45.414Z,65.08
2022-07-29T03:40:34.755Z,65.15
2022-07-29T03:43:02.888Z,65.91
2022-07-29T03:45:32.054Z,65.22
2022-07-29T03:48:03.245Z,65.42
2022-07-29T03:50:31.837Z,65.45
2022-07-29T03:52:58.702Z,65.13
2022-07-29T03:55:27.333Z,65.51
2022-07-29T03:57:54.516Z,65.28
2022-07-29T04:00:21.258Z,65.65
2022-07-29T04:02:49.746Z,65.48
2022-07-29T04:05:17.231Z,65.46
2022-07-29T04:07:48.006Z,65.55
2022-07-29T04:10:16.556Z,65.78
2022-07-29T04:12:43.254Z,65.64
2022-07-29T04:15:10.284Z,65.44
2022-07-29T04:17:36.742Z,65.52
2022-07-29T04:20:03.893Z,65.34
2022-07-29T04:22:30.529Z,65.91
2022-07-29T04:25:00.332Z,66.07
2022-07-29T04:27:30.108Z,66.02
2022-07-29T04:29:57.603Z,66.31
2022-07-29T04:32:25.429Z,66.35
2022-07-29T04:34:52.203Z,66.33
2022-07-29T04:37:18.679Z,66.25
2022-07-29T04:39:45.254Z,66.55
2022-07-29T04:42:11.740Z,66.08
2022-07-29T04:44:39.914Z,66.14
2022-07-29T04:47:10.193Z,66.29
2022-07-29T04:49:39.500Z,66.27
2022-07-29T04:52:06.944Z,66.15
2022-07-29T04:54:34.054Z,66.05
2022-07-29T04:57:00.560Z,65.89
2022-07-29T04:59:27.660Z,66.33
2022-07-29T05:01:54.259Z,65.80
2022-07-29T05:04:21.122Z,65.86
2022-07-29T05:06:47.793Z,66.25
2022-07-29T05:09:14.279Z,65.54
2022-07-29T05:11:40.805Z,65.59
2022-07-29T05:14:07.291Z,65.50
2022-07-29T05:16:34.456Z,65.42
2022-07-29T05:19:01.030Z,65.20
2022-07-29T05:21:27.541Z,64.97
2022-07-29T05:23:54.035Z,65.03
2022-07-29T05:26:20.527Z,65.38
2022-07-29T05:28:47.037Z,66.16
2022-07-29T05:31:15.573Z,65.80
2022-07-29T05:33:42.969Z,65.79
2022-07-29T05:36:09.821Z,66.35
2022-07-29T05:38:37.156Z,65.72
2022-07-29T05:41:04.964Z,65.70
2022-07-29T05:43:31.612Z,65.56
2022-07-29T05:45:58.571Z,65.59
2022-07-29T05:48:25.664Z,65.91
2022-07-29T05:50:52.245Z,65.91
2022-07-29T05:53:19.650Z,65.91
2022-07-29T05:55:50.534Z,66.56
2022-07-29T05:58:17.410Z,66.82
2022-07-29T06:00:44.347Z,66.57
2022-07-29T06:03:10.932Z,66.73
2022-07-29T06:05:37.682Z,66.52
2022-07-29T06:08:06.768Z,67.04
2022-07-29T06:10:33.567Z,66.70
2022-07-29T06:13:00.055Z,66.28
2022-07-29T06:15:26.542Z,66.04
2022-07-29T06:17:59.055Z,66.05
2022-07-29T06:20:31.242Z,65.73
2022-07-29T06:22:58.391Z,65.61
2022-07-29T06:25:24.870Z,65.92
2022-07-29T06:27:51.383Z,65.59
2022-07-29T06:30:17.959Z,66.27
2022-07-29T06:32:44.444Z,65.96
2022-07-29T06:35:40.927Z,66.25
2022-07-29T06:37:58.077Z,65.70
2022-07-29T06:40:45.315Z,65.17
2022-07-29T06:43:11.887Z,65.58
2022-07-29T06:45:42.027Z,65.72
2022-07-29T06:48:09.076Z,65.51
2022-07-29T06:50:35.614Z,64.71
2022-07-29T06:53:02.193Z,64.22
2022-07-29T06:55:28.695Z,63.88
2022-07-29T06:57:55.204Z,62.54
2022-07-29T07:00:21.779Z,63.07
2022-07-29T07:02:48.836Z,62.21
2022-07-29T07:05:15.491Z,62.46
2022-07-29T07:07:41.972Z,63.01
2022-07-29T07:10:08.825Z,62.83
2022-07-29T07:12:35.329Z,62.58
2022-07-29T07:15:01.836Z,62.30
2022-07-29T07:17:28.323Z,63.21
2022-07-29T07:19:54.799Z,63.15
2022-07-29T07:22:21.441Z,64.12
2022-07-29T07:24:47.917Z,62.99
2022-07-29T07:27:14.420Z,62.87
2022-07-29T07:29:42.127Z,62.54
2022-07-29T07:32:10.833Z,61.38
2022-07-29T07:34:38.756Z,60.44
2022-07-29T07:37:05.912Z,60.70
2022-07-29T07:39:32.443Z,59.83
2022-07-29T07:41:59.598Z,59.15
2022-07-29T07:44:26.184Z,59.67
2022-07-29T07:46:53.210Z,59.48
2022-07-29T07:49:21.325Z,60.65
2022-07-29T07:51:50.987Z,58.90
2022-07-29T07:54:18.431Z,57.83
2022-07-29T07:56:50.803Z,58.88
2022-07-29T07:59:19.828Z,58.89
2022-07-29T08:01:48.145Z,58.21
2022-07-29T08:04:27.361Z,58.58
2022-07-29T08:06:55.815Z,58.80
2022-07-29T08:09:29.207Z,57.93
2022-07-29T08:11:57.499Z,57.64
2022-07-29T08:14:24.050Z,56.82
2022-07-29T08:16:50.618Z,58.01
2022-07-29T08:19:17.211Z,56.99
2022-07-29T08:21:43.820Z,55.45
2022-07-29T08:24:30.921Z,56.57
2022-07-29T08:26:57.412Z,57.33
2022-07-29T08:29:23.871Z,55.30
2022-07-29T08:31:50.728Z,54.41
2022-07-29T08:34:17.501Z,54.23
2022-07-29T08:36:44.159Z,53.44
2022-07-29T08:39:16.762Z,53.38
2022-07-29T08:41:57.384Z,52.30
2022-07-29T08:44:29.705Z,54.31
2022-07-29T08:46:57.776Z,54.14
2022-07-29T08:49:24.326Z,55.53
2022-07-29T08:51:51.739Z,56.06
2022-07-29T08:54:19.616Z,55.85
2022-07-29T08:56:50.063Z,54.46
2022-07-29T08:59:17.977Z,54.25
2022-07-29T09:01:47.872Z,54.38
2022-07-29T09:04:16.071Z,54.71
2022-07-29T09:06:49.001Z,54.89
2022-07-29T10:04:48.172Z,48.04
2022-07-29T10:07:14.792Z,48.86
2022-07-29T10:09:55.534Z,46.61
2022-07-29T10:12:23.292Z,44.16
2022-07-29T10:14:51.431Z,45.03
2022-07-29T10:17:19.340Z,45.65
2022-07-29T10:19:46.206Z,45.55
2022-07-29T10:22:12.730Z,47.45
2022-07-29T10:24:39.672Z,45.56
2022-07-29T10:27:08.358Z,46.15
2022-07-29T10:29:35.221Z,46.01
2022-07-29T10:32:23.294Z,43.72
2022-07-29T10:34:58.992Z,43.68
2022-07-29T10:37:57.833Z,44.08
2022-07-29T10:41:02.712Z,44.62
2022-07-29T10:43:39.244Z,45.03
2022-07-29T10:46:09.514Z,45.00
2022-07-29T10:49:06.880Z,43.86
2022-07-29T10:52:02.520Z,43.05
2022-07-29T10:54:49.192Z,44.24
2022-07-29T10:57:53.776Z,43.15
2022-07-29T11:00:19.515Z,44.36
2022-07-29T11:02:50.179Z,44.68
2022-07-29T11:05:21.729Z,43.40
2022-07-29T11:08:12.515Z,44.17
2022-07-29T11:10:48.047Z,41.66
2022-07-29T11:13:44.663Z,44.08
2022-07-29T11:16:16.155Z,44.18
2022-07-29T11:19:13.952Z,44.92
2022-07-29T11:21:53.978Z,41.89
2022-07-29T11:24:28.717Z,43.11
2022-07-29T11:27:18.260Z,43.43
2022-07-29T11:29:58.639Z,43.56
2022-07-29T11:32:37.535Z,43.76
2022-07-29T11:35:18.436Z,44.94
2022-07-29T11:38:23.502Z,44.52
2022-07-29T11:41:25.372Z,43.73
2022-07-29T11:43:53.466Z,42.66
2022-07-29T11:46:53.971Z,44.08
2022-07-29T11:49:31.928Z,45.69
2022-07-29T11:52:02.647Z,43.84
2022-07-29T11:54:38.706Z,44.21
2022-07-29T11:57:22.240Z,42.83
2022-07-29T11:59:49.180Z,43.29
2022-07-29T12:02:37.539Z,43.41
2022-07-29T12:05:10.841Z,42.34
2022-07-29T12:07:39.095Z,42.50
2022-07-29T12:10:08.343Z,40.92
2022-07-29T12:12:39.700Z,41.16
2022-07-29T12:15:21.553Z,39.92
2022-07-29T12:17:49.192Z,41.21
2022-07-29T12:20:24.352Z,40.10
2022-07-29T12:22:51.938Z,41.13
2022-07-29T12:25:34.848Z,40.42
2022-07-29T12:28:04.554Z,39.59
2022-07-29T12:30:41.628Z,39.12
2022-07-29T12:33:23.107Z,40.86
2022-07-29T12:36:15.621Z,39.24
2022-07-29T12:38:44.393Z,40.28
2022-07-29T12:41:11.443Z,38.68
2022-07-29T12:43:38.208Z,37.90
2022-07-29T12:46:15.858Z,38.37
2022-07-29T12:48:44.174Z,38.07
2022-07-29T12:51:13.291Z,38.42
2022-07-29T12:53:40.029Z,38.63
2022-07-29T12:56:26.588Z,36.13
2022-07-29T12:58:54.058Z,38.93
2022-07-29T13:01:21.888Z,36.79
2022-07-29T13:03:56.693Z,35.29
2022-07-29T13:06:31.626Z,36.30
2022-07-29T13:09:02.569Z,35.91
2022-07-29T13:11:30.851Z,38.07
2022-07-29T13:14:06.853Z,37.69
2022-07-29T13:16:33.971Z,37.70
2022-07-29T13:19:10.184Z,37.67
2022-07-29T13:21:37.887Z,37.39
2022-07-29T13:24:05.649Z,39.50
2022-07-29T13:26:32.333Z,39.18
2022-07-29T13:28:58.930Z,37.66
2022-07-29T13:31:25.614Z,37.03
2022-07-29T13:33:52.106Z,37.72
2022-07-29T13:36:19.614Z,40.16
2022-07-29T13:38:46.090Z,40.14
2022-07-29T13:41:12.691Z,38.94
2022-07-29T13:43:39.301Z,39.24
2022-07-29T13:46:05.832Z,39.38
2022-07-29T13:48:32.429Z,38.49
2022-07-29T13:50:58.945Z,40.48
2022-07-29T13:53:26.795Z,40.05
2022-07-29T13:55:54.163Z,40.56
2022-07-29T13:58:20.718Z,39.24
2022-07-29T14:00:47.652Z,39.05
2022-07-29T14:03:14.153Z,38.42
2022-07-29T14:05:40.644Z,40.07
2022-07-29T14:08:07.184Z,40.33
2022-07-29T14:10:33.756Z,40.15
2022-07-29T14:13:00.234Z,40.89
2022-07-29T14:15:27.830Z,42.22
2022-07-29T14:17:54.403Z,40.85
2022-07-29T14:20:20.969Z,41.48
2022-07-29T14:22:48.073Z,41.78
2022-07-29T14:25:15.715Z,40.30
2022-07-29T14:27:44.212Z,40.74
2022-07-29T14:30:11.183Z,40.80
2022-07-29T14:32:37.744Z,41.44
2022-07-29T14:35:05.479Z,40.11
2022-07-29T14:37:39.866Z,41.55
2022-07-29T14:40:08.789Z,41.58
2022-07-29T14:42:35.355Z,40.94
2022-07-29T14:45:01.907Z,41.85
2022-07-29T14:47:28.482Z,41.75
2022-07-29T14:49:54.985Z,42.06
2022-07-29T14:52:21.756Z,41.07
2022-07-29T14:54:48.215Z,41.92
2022-07-29T14:57:14.983Z,42.50
2022-07-29T14:59:42.290Z,42.72
2022-07-29T15:02:09.315Z,42.14
2022-07-29T15:04:35.842Z,42.76
2022-07-29T15:07:02.709Z,42.29
2022-07-29T15:09:29.278Z,41.72
2022-07-29T15:11:56.152Z,42.53
2022-07-29T15:14:22.958Z,42.90
2022-07-29T15:16:49.586Z,43.35
2022-07-29T15:19:19.150Z,43.00
2022-07-29T15:21:59.564Z,42.90
2022-07-29T15:24:26.597Z,44.47
2022-07-29T15:26:53.281Z,43.05
2022-07-29T15:29:19.859Z,43.54
2022-07-29T15:31:46.495Z,43.63
2022-07-29T15:34:13.095Z,44.77
2022-07-29T15:36:52.035Z,44.75
2022-07-29T15:39:20.787Z,44.81
2022-07-29T15:41:47.505Z,45.25
2022-07-29T15:44:14.034Z,44.09
2022-07-29T15:46:59.901Z,44.39
2022-07-29T15:49:46.328Z,45.40
2022-07-29T15:52:16.739Z,45.40
2022-07-29T15:54:43.407Z,44.43
2022-07-29T15:57:10.648Z,44.72
2022-07-29T15:59:37.141Z,44.14
2022-07-29T16:02:04.952Z,43.59
2022-07-29T16:04:32.048Z,44.14
2022-07-29T16:06:59.042Z,44.20
2022-07-29T16:09:26.638Z,43.29
2022-07-29T16:11:54.043Z,43.08
2022-07-29T16:14:21.178Z,43.67
2022-07-29T16:16:48.225Z,42.68
2022-07-29T16:19:14.835Z,42.62
2022-07-29T16:21:41.329Z,41.85
2022-07-29T16:24:08.265Z,42.65
2022-07-29T16:26:35.358Z,42.98
2022-07-29T16:29:01.831Z,42.22
2022-07-29T16:31:28.563Z,41.16
2022-07-29T16:33:56.077Z,40.70
2022-07-29T16:36:23.410Z,41.35
2022-07-29T16:38:50.776Z,41.82
2022-07-29T16:41:17.372Z,41.58
2022-07-29T16:43:43.982Z,39.12
2022-07-29T16:46:17.805Z,39.17
2022-07-29T16:48:45.435Z,40.96
2022-07-29T16:51:12.136Z,38.68
2022-07-29T16:53:41.327Z,37.20
2022-07-29T16:56:08.570Z,37.57
2022-07-29T16:58:43.478Z,38.43
2022-07-29T17:01:10.993Z,39.21
2022-07-29T17:04:00.169Z,37.93
2022-07-29T17:06:29.626Z,38.58
2022-07-29T17:08:56.542Z,37.93
2022-07-29T17:11:23.041Z,37.58
2022-07-29T17:14:10.213Z,38.17
2022-07-29T17:16:36.927Z,39.82
2022-07-29T17:19:03.598Z,39.02
2022-07-29T17:21:30.067Z,40.06
2022-07-29T17:23:56.649Z,41.19
2022-07-29T17:26:23.159Z,41.01
2022-07-29T17:28:49.722Z,41.00
2022-07-29T17:31:16.373Z,40.42
2022-07-29T17:33:42.985Z,41.27
2022-07-29T17:36:24.622Z,41.11
2022-07-29T17:38:57.349Z,41.29
2022-07-29T17:41:24.929Z,41.15
2022-07-29T17:43:51.847Z,41.11
2022-07-29T17:46:19.506Z,40.12
2022-07-29T17:48:46.283Z,40.10
2022-07-29T17:51:13.028Z,40.34
2022-07-29T17:53:39.846Z,40.84
2022-07-29T17:56:06.407Z,40.01
2022-07-29T17:58:33.496Z,40.77
2022-07-29T18:01:00.416Z,41.11
2022-07-29T18:03:27.270Z,42.12
2022-07-29T18:05:53.878Z,42.49
2022-07-29T18:08:20.446Z,42.95
2022-07-29T18:10:46.935Z,43.21
2022-07-29T18:13:13.826Z,43.24
2022-07-29T18:15:40.972Z,43.69
2022-07-29T18:18:07.522Z,44.05
2022-07-29T18:20:34.363Z,44.02
2022-07-29T18:23:01.497Z,44.38
2022-07-29T18:25:28.942Z,44.53
2022-07-29T18:28:00.150Z,44.51
2022-07-29T18:30:27.567Z,45.25
2022-07-29T18:33:19.144Z,45.35
2022-07-29T18:35:40.771Z,45.69
2022-07-29T18:38:07.258Z,45.43
2022-07-29T18:40:33.822Z,46.22
2022-07-29T18:43:00.292Z,46.47
2022-07-29T18:45:28.743Z,46.52
2022-07-29T18:47:56.386Z,46.28
2022-07-29T18:50:28.840Z,47.02
2022-07-29T18:52:58.779Z,46.85
2022-07-29T18:55:26.264Z,47.25
2022-07-29T18:57:56.343Z,47.83
2022-07-29T19:00:24.425Z,47.70
2022-07-29T19:02:51.208Z,47.83
2022-07-29T19:05:18.156Z,49.10
2022-07-29T19:07:44.642Z,48.91
2022-07-29T19:10:11.751Z,49.51
2022-07-29T19:12:38.317Z,49.21
2022-07-29T19:15:05.000Z,49.67
2022-07-29T19:17:31.495Z,49.69
2022-07-29T19:19:58.114Z,50.16
2022-07-29T19:22:24.865Z,50.35
2022-07-29T19:24:51.515Z,50.33
2022-07-29T19:27:18.089Z,50.77
2022-07-29T19:29:44.991Z,51.39
2022-07-29T19:32:11.562Z,51.91
2022-07-29T19:34:38.317Z,51.89
2022-07-29T19:37:05.264Z,52.36
2022-07-29T19:39:35.165Z,52.22
2022-07-29T19:42:03.501Z,52.44
2022-07-29T19:44:30.190Z,53.56
2022-07-29T19:46:56.937Z,53.68
2022-07-29T19:49:23.796Z,53.78
2022-07-29T19:54:20.347Z,54.20
2022-07-29T19:56:46.818Z,54.76
2022-07-29T19:59:13.328Z,54.59
2022-07-29T20:01:39.898Z,54.66
2022-07-29T20:04:06.456Z,55.01
2022-07-29T20:06:33.172Z,55.29
2022-07-29T20:08:59.753Z,55.72
2022-07-29T20:11:26.579Z,55.77
2022-07-29T20:13:53.097Z,55.95
2022-07-29T20:16:19.727Z,56.48
2022-07-29T20:18:46.290Z,56.28
2022-07-29T20:21:13.397Z,56.21
2022-07-29T20:23:39.886Z,56.56
2022-07-29T20:26:09.511Z,56.42
2022-07-29T20:28:37.101Z,56.97
2022-07-29T20:31:03.691Z,56.96
2022-07-29T20:33:30.317Z,56.99
2022-07-29T20:35:56.925Z,57.14
2022-07-29T20:38:23.428Z,57.10
2022-07-29T20:40:50.791Z,57.75
2022-07-29T20:43:17.308Z,57.90
2022-07-29T20:45:43.860Z,57.72
2022-07-29T20:48:10.619Z,58.64
2022-07-29T20:50:37.129Z,58.79
2022-07-29T20:53:03.649Z,59.05
2022-07-29T20:55:31.910Z,59.23
2022-07-29T20:57:58.712Z,59.70
2022-07-29T21:00:25.292Z,60.20
2022-07-29T21:02:51.924Z,60.20
2022-07-29T21:05:18.497Z,60.78
2022-07-29T21:07:45.110Z,61.43
2022-07-29T21:10:11.817Z,62.24
2022-07-29T21:12:38.397Z,62.62
2022-07-29T21:15:06.518Z,63.25
2022-07-29T21:17:38.962Z,63.78
2022-07-29T21:20:08.472Z,64.78
2022-07-29T21:22:35.036Z,64.92
2022-07-29T21:25:01.638Z,65.84
2022-07-29T21:27:46.973Z,66.41
2022-07-29T21:30:13.558Z,66.47
2022-07-29T21:32:40.227Z,66.72
2022-07-29T21:35:19.162Z,66.86
2022-07-29T21:37:53.781Z,67.10
2022-07-29T21:40:20.711Z,67.12
2022-07-29T21:42:47.186Z,67.39
2022-07-29T21:45:13.867Z,67.49
2022-07-29T21:47:40.358Z,68.09
2022-07-29T21:50:07.402Z,68.25
2022-07-29T21:52:33.934Z,68.49
2022-07-29T21:55:03.342Z,69.10
2022-07-29T21:57:29.986Z,69.47
2022-07-29T21:59:59.569Z,69.97
2022-07-29T22:02:29.115Z,70.33
2022-07-29T22:04:55.590Z,70.39
2022-07-29T22:07:22.062Z,70.93
2022-07-29T22:09:48.549Z,71.02
2022-07-29T22:12:15.035Z,71.21
2022-07-29T22:14:41.538Z,70.82
2022-07-29T22:17:08.172Z,71.28
2022-07-29T22:19:34.749Z,71.63
2022-07-29T22:22:01.320Z,72.14
2022-07-29T22:24:27.829Z,72.68
2022-07-29T22:26:54.291Z,72.83
2022-07-29T22:29:20.783Z,72.86
2022-07-29T22:31:47.245Z,73.04
2022-07-29T22:34:14.301Z,73.00
2022-07-29T22:36:41.148Z,73.45
2022-07-29T22:39:07.918Z,73.83
2022-07-29T22:41:34.446Z,74.19
2022-07-29T22:44:01.103Z,74.02
2022-07-29T22:46:27.775Z,73.70
2022-07-29T22:48:54.316Z,72.96
2022-07-29T22:51:21.051Z,72.86
2022-07-29T22:53:47.502Z,73.55
2022-07-29T22:56:14.272Z,73.98
2022-07-29T22:58:40.802Z,74.16
2022-07-29T23:01:07.401Z,74.35
2022-07-29T23:03:34.327Z,74.79
2022-07-29T23:06:00.934Z,75.15
2022-07-29T23:08:27.456Z,75.80
2022-07-29T23:10:53.934Z,75.73
2022-07-29T23:13:20.438Z,75.76
2022-07-29T23:15:46.912Z,75.69
2022-07-29T23:18:13.488Z,75.66
2022-07-29T23:20:40.333Z,75.91
2022-07-29T23:23:06.830Z,75.84
2022-07-29T23:25:33.306Z,75.84
2022-07-29T23:28:00.157Z,75.22
2022-07-29T23:30:28.925Z,75.39
2022-07-29T23:32:55.771Z,75.61
2022-07-29T23:35:23.066Z,76.36
2022-07-29T23:37:49.637Z,76.40
2022-07-29T23:40:16.410Z,76.54
2022-07-29T23:42:43.281Z,75.32
2022-07-29T23:45:10.935Z,74.69
2022-07-29T23:47:37.612Z,74.57
2022-07-29T23:50:05.592Z,75.59
2022-07-29T23:52:32.209Z,75.43
2022-07-29T23:55:37.333Z,75.27
2022-07-29T23:57:45.257Z,75.38
